x

West Washington - 300nm West Of Aberdeen, Wa (46005) Wave Buoy

5:50pm - Fri 31st Oct 2014 All times are UTC.

  • Sig Wave height 10.8ft
  • Swell Direction
  • Peak Period 14s
  • Average Period 9s
  • Wind
    4mph, 7mph gusts
  • Sea Temp 60°f
  • Air Temp 53°f
  • Sea Pressure 1006mb

More Historic Weather Station data

Upgrade to MSW Pro to gain access to the past 30 days of data for over 8000 Wavebouys and Weather Stations around the globe.

Join Pro

Comparision Forecast

View Surf forecast
   
Fri 10/31 5:50pm 11ft 14s 9s 4 7 mph 1006mb 60f 53f
4:50pm 11ft 14s 9s 9 13 mph 1005.3mb 60f 54f
3:50pm 11.5ft 15s 9s 13 18 mph 1004.6mb 60f 54f
2:50pm 12ft 15s 9s 13 18 mph 1003.8mb 60f 54f
1:50pm 13ft 15s 9s 16 20 mph 1003.4mb 60f 55f
12:50pm 14ft 15s 9s 16 20 mph 1003.1mb 60f 55f
11:50am 12.5ft 14s 8s 18 25 mph 1002.8mb 60f 55f
10:50am 13.5ft 15s 8s 18 22 mph 1002.9mb 60f 55f
9:50am 13.5ft 10s 8s 22 27 mph 1002.8mb 60f 55f
8:50am 13ft 14s 8s 25 31 mph 1002.5mb 60f 55f
7:50am 12ft 13s 7s 27 31 mph 1002.1mb 60f 55f
6:50am 12ft 12s 7s 27 34 mph 1002.3mb 60f 56f
5:50am 12ft 12s 7s 27 31 mph 1002.2mb 60f 55f
4:50am 11ft 13s 7s 25 31 mph 1002.1mb 60f 56f
3:50am 11ft 12s 8s 16 20 mph 1002.6mb 60f 53f
2:50am 11ft 13s 7s 20 25 mph 1002.6mb 60f 55f
1:50am 11.5ft 13s 8s 13 18 mph 1003.6mb 60f 51f
12:50am 11.5ft 13s 8s 22 27 mph 1003.4mb 60f 56f
Thu 10/30 11:50pm 10ft 14s 8s 20 22 mph 1004mb 60f 56f
10:50pm 10.5ft 14s 8s 20 25 mph 1004.2mb 60f 56f
9:50pm 10ft 14s 7s 16 20 mph 1004.8mb 60f 54f
8:50pm 9.5ft 15s 7s 18 22 mph 1005.3mb 60f 56f
7:50pm 9ft 8s 7s 18 25 mph 1005.7mb 60f 56f
6:50pm 8.5ft 7s 6s 20 27 mph 1005.6mb 60f 56f
5:50pm 8ft 8s 6s 16 20 mph 1005.4mb 60f 56f
4:50pm 8ft 8s 6s 18 22 mph 1005.3mb 60f 56f
3:50pm 8ft 8s 6s 20 25 mph 1004.7mb 60f 56f
2:50pm 8ft 7s 6s 20 25 mph 1004.4mb 60f 56f
1:50pm 8ft 8s 6s 25 29 mph 1003.9mb 60f 56f
12:50pm 8ft 8s 6s 27 31 mph 1003.5mb 60f 56f
11:50am 8ft 8s 6s 25 31 mph 1003.7mb 60f 58f
10:50am 8ft 8s 6s 22 27 mph 1004.1mb 60f 57f
9:50am 8.5ft 10s 6s 22 27 mph 1004.2mb 60f 57f
8:50am 8ft 7s 6s 18 22 mph 1004.1mb 60f 57f
7:50am 9ft 8s 6s 25 29 mph 1004.1mb 60f 55f
6:50am 9.5ft 7s 6s 16 20 mph 1004.4mb 60f 58f
5:50am 8.5ft 6s 6s 22 27 mph 1004.7mb 60f 58f
4:50am 8.5ft 6s 6s 22 27 mph 1004.8mb 60f 60f
3:50am 8ft 10s 6s 27 31 mph 1005.2mb 60f 60f
2:50am 9ft 10s 6s 27 31 mph 1006.2mb 60f 60f
1:50am 9ft 8s 6s 27 34 mph 1006.6mb 60f 60f
12:50am 8.5ft 10s 6s 25 29 mph 1007.8mb 60f 59f
Wed 10/29 11:50pm 8ft 10s 6s 22 27 mph 1008.7mb 60f 60f
10:50pm 8ft 11s 6s 25 29 mph 1009.9mb 60f 60f
9:50pm 8ft 10s 7s 22 27 mph 1010.8mb 60f 60f
8:50pm 8ft 10s 7s 20 22 mph 1012mb 60f 59f
7:50pm 9ft 10s 7s 22 27 mph 1013.1mb 60f 59f
6:50pm 9ft 9s  -  20 22 mph 1013.8mb 60f 58f
5:50pm 9ft 11s 7s 16 20 mph 1014.3mb 60f 58f
4:50pm 10ft 10s 8s 18 20 mph 1014.4mb 60f 59f
3:50pm 9ft 11s 8s 11 16 mph 1014.8mb 60f 57f
2:50pm 8.5ft 10s 8s 4 7 mph 1014.8mb 60f 55f
1:50pm 10ft 12s 8s 9 13 mph 1014.8mb 60f 57f
12:50pm 10.5ft 12s 8s 7 9 mph 1014.8mb 60f 57f
11:50am 11ft 12s 8s 7 9 mph 1014.9mb 60f 56f
10:50am 11.5ft 12s 8s 9 13 mph 1015.2mb 60f 58f
9:50am 12ft 12s 8s 11 13 mph 1015mb 60f 58f
8:50am 12ft 12s 8s 13 20 mph 1014.8mb 60f 58f
7:50am 12ft 12s 8s 16 18 mph 1014.3mb 60f 58f
6:50am 13.5ft 11s 8s 16 20 mph 1013.7mb 60f 58f
5:50am 13ft 12s 8s 16 20 mph 1013.1mb 60f 58f
4:50am 14ft 13s 8s 22 29 mph 1011.9mb 60f 57f
3:50am 15ft 12s 8s 25 27 mph 1011mb 60f 57f
2:50am 15ft 11s 8s 25 29 mph 1010mb 60f 58f
1:50am 13.5ft 12s 8s 22 27 mph 1008.8mb 61f 58f
12:50am 14ft 11s 8s 25 31 mph 1007.5mb 61f 59f
Tue 10/28 11:50pm 15ft 11s 8s 25 31 mph 1006.3mb 61f 59f
10:50pm 15ft 12s 8s 25 29 mph 1005.3mb 60f 58f
9:50pm 14ft 12s 8s 25 29 mph 1004.3mb 60f 60f
8:50pm 15.5ft 12s 8s 25 31 mph 1003.8mb 60f 59f
7:50pm 15.5ft 12s 8s 27 34 mph 1003.3mb 60f 59f
6:50pm 16ft 12s 8s 27 34 mph 1002.7mb 60f 59f
5:50pm 16.5ft 12s 9s 27 34 mph 1002.2mb 60f 60f
4:50pm 15.5ft 9s 8s 27 34 mph 1001.7mb 60f 59f
3:50pm 18.5ft 12s 9s 27 34 mph 1000.8mb 60f 60f
2:50pm 17.5ft 11s 9s 29 38 mph 1000.1mb 61f 60f
1:50pm 16.5ft 12s 8s 29 36 mph 999.6mb 61f 61f
12:50pm 17ft 11s 8s 29 36 mph 999.2mb 61f 60f
11:50am 15.5ft 11s 8s 34 40 mph 998.5mb 61f 60f
10:50am 16ft 11s 8s 29 38 mph 999mb 61f 59f
9:50am 14.5ft 11s 8s 29 36 mph 999mb 61f 61f
8:50am 15ft 11s 8s 27 34 mph 999.1mb 61f 61f
7:50am 15ft 12s 8s 29 34 mph 999.2mb 61f 61f
6:50am 14ft 12s 8s 27 34 mph 999.4mb 61f 60f
5:50am 13ft 11s 7s 27 34 mph 999.7mb 61f 59f
4:50am 13ft 11s 8s 22 29 mph 999.7mb 61f 61f
3:50am 13ft 10s 7s 25 29 mph 999.8mb 61f 60f
2:50am 13ft 11s 8s 25 31 mph 999.7mb 61f 62f
1:50am 13.5ft 11s 8s 25 27 mph 999.7mb 61f 61f
12:50am 14.5ft 11s 8s 20 25 mph 1000.1mb 61f 61f
Mon 10/27 11:50pm 12.5ft 10s 8s 29 38 mph 999.5mb 61f 61f
10:50pm 15ft 10s 8s 20 25 mph 1000.4mb 61f 62f
9:50pm 13ft 11s 8s 20 25 mph 1000.9mb 61f 62f
8:50pm 15ft 10s 8s 20 27 mph 1001.8mb 61f 62f
7:50pm 16ft 9s 8s 25 29 mph 1002.3mb 61f 62f
6:50pm 15ft 9s 7s 29 38 mph 1002.5mb 61f 61f